createdAt,value
2019-05-03T00:02:35.541Z,14.53
2019-05-03T00:05:18.728Z,15.68
2019-05-03T00:07:48.639Z,21.73
2019-05-03T00:10:18.130Z,14.58
2019-05-03T00:12:47.435Z,19.35
2019-05-03T00:15:18.715Z,17.40
2019-05-03T00:17:48.204Z,19.57
2019-05-03T00:20:17.587Z,16.65
2019-05-03T00:22:46.892Z,15.83
2019-05-03T00:25:16.219Z,16.45
2019-05-03T00:27:45.682Z,22.22
2019-05-03T00:30:16.643Z,18.73
2019-05-03T00:32:46.033Z,15.45
2019-05-03T00:35:19.736Z,18.35
2019-05-03T00:37:53.865Z,19.62
2019-05-03T00:40:29.349Z,22.22
2019-05-03T00:42:59.761Z,24.23
2019-05-03T00:45:29.080Z,22.87
2019-05-03T00:47:58.414Z,22.98
2019-05-03T00:50:27.727Z,25.97
2019-05-03T00:52:57.055Z,20.17
2019-05-03T00:55:26.459Z,20.90
2019-05-03T00:57:55.784Z,22.50
2019-05-03T01:00:25.441Z,21.02
2019-05-03T01:02:54.766Z,20.25
2019-05-03T01:05:24.092Z,21.17
2019-05-03T01:07:53.421Z,18.37
2019-05-03T01:10:22.964Z,15.13
2019-05-03T01:12:53.327Z,21.62
2019-05-03T01:15:39.450Z,18.05
2019-05-03T01:18:12.322Z,17.60
2019-05-03T01:20:42.676Z,21.48
2019-05-03T01:23:12.481Z,19.57
2019-05-03T01:25:42.915Z,19.42
2019-05-03T01:28:12.445Z,20.88
2019-05-03T01:30:42.494Z,18.67
2019-05-03T01:33:12.204Z,17.32
2019-05-03T01:35:42.776Z,20.75
2019-05-03T01:38:13.214Z,17.67
2019-05-03T01:40:42.557Z,21.12
2019-05-03T01:43:13.096Z,21.95
2019-05-03T01:45:44.066Z,17.00
2019-05-03T01:48:32.212Z,23.42
2019-05-03T01:51:19.655Z,23.40
2019-05-03T01:53:52.218Z,17.65
2019-05-03T01:56:22.492Z,21.07
2019-05-03T01:58:52.382Z,23.67
2019-05-03T02:01:23.534Z,18.60
2019-05-03T02:03:57.407Z,20.05
2019-05-03T02:06:26.730Z,22.00
2019-05-03T02:08:56.053Z,22.20
2019-05-03T02:11:25.597Z,23.02
2019-05-03T02:13:54.937Z,23.50
2019-05-03T02:16:24.250Z,19.70
2019-05-03T02:18:53.591Z,16.82
2019-05-03T02:21:22.962Z,20.08
2019-05-03T02:23:52.296Z,21.45
2019-05-03T02:26:22.424Z,31.68
2019-05-03T02:28:52.729Z,24.65
2019-05-03T02:31:23.227Z,21.75
2019-05-03T02:33:53.525Z,20.00
2019-05-03T02:36:23.552Z,19.35
2019-05-03T02:38:53.635Z,19.42
2019-05-03T02:41:23.184Z,24.90
2019-05-03T02:43:56.019Z,17.12
2019-05-03T02:46:26.891Z,18.90
2019-05-03T02:49:00.639Z,19.23
2019-05-03T02:51:29.934Z,22.95
2019-05-03T02:53:59.267Z,19.42
2019-05-03T02:56:28.591Z,17.90
2019-05-03T02:58:57.895Z,20.45
2019-05-03T03:01:27.196Z,16.65
2019-05-03T03:03:57.586Z,20.05
2019-05-03T03:06:28.706Z,20.97
2019-05-03T03:08:59.112Z,21.33
2019-05-03T03:11:30.817Z,25.80
2019-05-03T03:16:31.442Z,19.25
2019-05-03T03:19:06.199Z,23.05
2019-05-03T03:21:39.456Z,15.93
2019-05-03T03:24:16.394Z,17.65
2019-05-03T03:26:47.223Z,20.68
2019-05-03T03:29:17.638Z,19.92
2019-05-03T03:32:10.422Z,30.15
2019-05-03T03:35:06.083Z,24.85
2019-05-03T03:37:35.191Z,24.70
2019-05-03T03:40:06.166Z,29.15
2019-05-03T03:42:36.259Z,21.00
2019-05-03T03:45:06.940Z,23.73
2019-05-03T03:47:38.183Z,20.90
2019-05-03T03:50:07.813Z,21.05
2019-05-03T03:52:38.524Z,25.50
2019-05-03T03:55:08.161Z,22.50
2019-05-03T03:57:37.551Z,23.42
2019-05-03T04:00:08.224Z,22.00
2019-05-03T04:02:38.930Z,19.92
2019-05-03T04:05:08.767Z,19.00
2019-05-03T04:07:39.164Z,17.35
2019-05-03T04:10:09.305Z,19.60
2019-05-03T04:12:40.431Z,17.75
2019-05-03T04:15:20.915Z,20.90
2019-05-03T04:18:08.066Z,19.62
2019-05-03T04:20:38.235Z,18.15
2019-05-03T04:23:07.566Z,13.03
2019-05-03T04:25:37.442Z,16.97
2019-05-03T04:28:07.125Z,12.15
2019-05-03T04:30:36.764Z,13.80
2019-05-03T04:33:06.404Z,15.20
2019-05-03T04:35:36.584Z,18.25
2019-05-03T04:38:06.653Z,14.90
2019-05-03T04:40:36.181Z,19.57
2019-05-03T04:43:06.371Z,12.45
2019-05-03T04:45:36.719Z,17.35
2019-05-03T04:48:06.853Z,12.60
2019-05-03T04:50:36.911Z,13.08
2019-05-03T04:53:06.592Z,13.08
2019-05-03T04:55:36.511Z,15.00
2019-05-03T04:58:06.107Z,12.63
2019-05-03T05:00:36.038Z,14.07
2019-05-03T05:03:07.031Z,16.40
2019-05-03T05:05:36.623Z,16.50
2019-05-03T05:08:06.283Z,12.90
2019-05-03T05:10:36.358Z,16.00
2019-05-03T05:13:05.923Z,15.08
2019-05-03T05:15:35.603Z,12.28
2019-05-03T05:18:12.708Z,18.75
2019-05-03T05:20:46.580Z,19.85
2019-05-03T05:23:15.966Z,12.95
2019-05-03T05:25:49.871Z,17.73
2019-05-03T05:28:20.997Z,12.93
2019-05-03T05:30:50.471Z,13.03
2019-05-03T05:33:24.982Z,16.27
2019-05-03T05:35:54.680Z,16.90
2019-05-03T05:38:25.573Z,12.00
2019-05-03T05:40:55.548Z,18.10
2019-05-03T05:43:25.659Z,16.95
2019-05-03T05:45:56.294Z,13.00
2019-05-03T05:48:27.679Z,13.62
2019-05-03T05:50:58.122Z,19.98
2019-05-03T05:53:27.408Z,15.00
2019-05-03T05:55:58.323Z,10.38
2019-05-03T05:58:29.268Z,13.45
2019-05-03T06:01:09.334Z,9.58
2019-05-03T06:03:38.620Z,8.73
2019-05-03T06:06:09.609Z,14.33
2019-05-03T06:08:44.693Z,9.68
2019-05-03T06:11:19.254Z,12.95
2019-05-03T06:13:51.380Z,12.75
2019-05-03T06:16:26.682Z,13.65
2019-05-03T06:18:57.686Z,12.07
2019-05-03T06:21:40.612Z,15.48
2019-05-03T06:26:51.903Z,10.93
2019-05-03T06:29:21.337Z,9.10
2019-05-03T06:31:57.863Z,11.50
2019-05-03T06:34:27.677Z,9.18
2019-05-03T06:36:59.586Z,10.90
2019-05-03T06:39:29.370Z,10.00
2019-05-03T06:41:58.637Z,10.28
2019-05-03T06:44:28.715Z,10.32
2019-05-03T06:47:00.995Z,14.73
2019-05-03T06:49:30.706Z,9.03
2019-05-03T06:51:59.981Z,9.33
2019-05-03T06:54:30.105Z,14.23
2019-05-03T06:57:00.209Z,13.45
2019-05-03T06:59:38.364Z,8.43
2019-05-03T07:02:15.029Z,8.90
2019-05-03T07:04:51.494Z,9.95
2019-05-03T07:07:28.067Z,9.43
2019-05-03T07:09:59.043Z,10.18
2019-05-03T07:12:29.977Z,7.87
2019-05-03T07:14:59.270Z,13.90
2019-05-03T07:17:28.728Z,9.80
2019-05-03T07:19:58.038Z,7.67
2019-05-03T07:22:27.322Z,8.88
2019-05-03T07:24:56.761Z,10.30
2019-05-03T07:27:26.040Z,8.25
2019-05-03T07:29:55.664Z,7.40
2019-05-03T07:32:24.992Z,5.70
2019-05-03T07:34:55.599Z,9.50
2019-05-03T07:37:25.103Z,9.85
2019-05-03T07:39:55.605Z,7.17
2019-05-03T07:42:25.644Z,12.78
2019-05-03T07:44:56.086Z,12.45
2019-05-03T07:47:26.413Z,7.30
2019-05-03T07:49:55.862Z,14.23
2019-05-03T07:52:26.214Z,9.55
2019-05-03T07:54:56.439Z,7.33
2019-05-03T07:57:27.377Z,6.70
2019-05-03T07:59:57.749Z,9.80
2019-05-03T08:02:27.628Z,7.62
2019-05-03T08:04:57.217Z,8.05
2019-05-03T08:07:26.514Z,11.22
2019-05-03T08:09:55.824Z,9.13
2019-05-03T08:12:25.185Z,11.65
2019-05-03T08:14:55.131Z,8.20
2019-05-03T08:17:25.601Z,5.17
2019-05-03T08:19:56.191Z,5.62
2019-05-03T08:22:25.777Z,4.92
2019-05-03T08:24:55.683Z,6.55
2019-05-03T08:27:26.160Z,6.90
2019-05-03T08:29:55.889Z,11.10
2019-05-03T08:32:41.207Z,7.90
2019-05-03T08:35:15.496Z,9.88
2019-05-03T08:37:46.486Z,8.13
2019-05-03T08:40:17.392Z,7.65
2019-05-03T08:42:46.693Z,6.83
2019-05-03T08:45:16.167Z,7.42
2019-05-03T08:47:45.472Z,8.40
2019-05-03T08:50:21.185Z,7.40
2019-05-03T08:52:46.346Z,7.45
2019-05-03T08:55:16.079Z,6.47
2019-05-03T08:57:45.621Z,9.35
2019-05-03T09:00:16.579Z,5.72
2019-05-03T09:02:45.937Z,6.70
2019-05-03T09:05:18.135Z,6.97
2019-05-03T09:07:46.497Z,7.95
2019-05-03T09:10:19.336Z,6.95
2019-05-03T09:12:53.154Z,12.58
2019-05-03T09:15:24.542Z,7.05
2019-05-03T09:17:55.394Z,7.37
2019-05-03T09:20:26.403Z,8.25
2019-05-03T09:22:55.997Z,5.50
2019-05-03T09:25:25.485Z,6.72
2019-05-03T09:27:55.211Z,6.90
2019-05-03T09:30:25.243Z,7.37
2019-05-03T09:32:55.671Z,5.97
2019-05-03T09:35:32.088Z,5.58
2019-05-03T09:37:56.179Z,5.37
2019-05-03T09:40:25.476Z,6.28
2019-05-03T09:42:55.163Z,4.25
2019-05-03T09:45:24.802Z,7.55
2019-05-03T09:47:55.165Z,8.95
2019-05-03T09:50:24.804Z,6.55
2019-05-03T09:52:55.442Z,7.22
2019-05-03T09:55:29.661Z,6.12
2019-05-03T09:57:59.054Z,8.23
2019-05-03T10:00:28.431Z,7.90
2019-05-03T10:02:57.691Z,6.62
2019-05-03T10:05:27.070Z,6.65
2019-05-03T10:07:56.489Z,8.68
2019-05-03T10:10:25.953Z,8.25
2019-05-03T10:12:56.325Z,7.40
2019-05-03T10:15:41.554Z,7.90
2019-05-03T10:18:13.720Z,4.95
2019-05-03T10:20:44.653Z,9.48
2019-05-03T10:23:32.412Z,8.28
2019-05-03T10:26:02.041Z,9.88
2019-05-03T10:28:33.145Z,9.65
2019-05-03T10:31:06.933Z,7.58
2019-05-03T10:33:36.350Z,7.12
2019-05-03T10:36:05.798Z,6.72
2019-05-03T10:38:35.123Z,7.22
2019-05-03T10:41:05.824Z,8.48
2019-05-03T10:43:35.614Z,7.60
2019-05-03T10:46:05.372Z,5.15
2019-05-03T10:48:35.527Z,10.65
2019-05-03T10:51:05.281Z,8.43
2019-05-03T10:53:36.217Z,10.95
2019-05-03T10:56:22.651Z,9.40
2019-05-03T10:59:06.372Z,6.87
2019-05-03T11:01:45.241Z,9.30
2019-05-03T11:04:14.882Z,13.32
2019-05-03T11:06:45.888Z,9.03
2019-05-03T11:09:15.508Z,7.20
2019-05-03T11:11:45.646Z,8.50
2019-05-03T11:14:15.173Z,8.48
2019-05-03T11:16:45.959Z,8.30
2019-05-03T11:19:16.978Z,10.28
2019-05-03T11:21:46.467Z,10.68
2019-05-03T11:24:15.745Z,8.08
2019-05-03T11:26:46.932Z,8.28
2019-05-03T11:29:16.227Z,7.75
2019-05-03T11:31:50.137Z,9.05
2019-05-03T11:34:25.378Z,9.13
2019-05-03T11:36:56.423Z,6.97
2019-05-03T11:39:25.709Z,8.35
2019-05-03T11:41:56.631Z,9.63
2019-05-03T11:44:40.673Z,6.33
2019-05-03T11:47:10.055Z,9.80
2019-05-03T11:49:39.359Z,9.55
2019-05-03T11:52:08.884Z,6.37
2019-05-03T11:54:39.135Z,6.50
2019-05-03T11:57:26.162Z,8.60
2019-05-03T11:59:56.466Z,8.03
2019-05-03T12:02:30.068Z,8.73
2019-05-03T12:05:04.975Z,7.22
2019-05-03T12:07:39.661Z,6.28
2019-05-03T12:10:16.816Z,14.05
2019-05-03T12:12:41.363Z,12.33
2019-05-03T12:15:10.832Z,10.75
2019-05-03T12:17:52.005Z,13.20
2019-05-03T12:22:46.679Z,5.75
2019-05-03T12:25:16.709Z,7.12
2019-05-03T12:27:46.580Z,9.50
2019-05-03T12:30:16.299Z,10.00
2019-05-03T12:32:45.675Z,6.30
2019-05-03T12:35:15.457Z,8.83
2019-05-03T12:37:45.691Z,8.63
2019-05-03T12:40:15.499Z,7.92
2019-05-03T12:42:45.980Z,10.03
2019-05-03T12:45:15.420Z,7.78
2019-05-03T12:47:45.338Z,10.43
2019-05-03T12:50:15.664Z,9.45
2019-05-03T12:52:50.263Z,10.60
2019-05-03T12:55:17.146Z,10.10
2019-05-03T12:57:46.631Z,12.40
2019-05-03T13:00:37.140Z,12.43
2019-05-03T13:03:10.649Z,9.65
2019-05-03T13:05:40.015Z,11.25
2019-05-03T13:08:36.365Z,9.03
2019-05-03T13:11:06.599Z,10.43
2019-05-03T13:13:36.230Z,10.13
2019-05-03T13:16:06.601Z,14.43
2019-05-03T13:18:36.046Z,18.05
2019-05-03T13:21:06.243Z,14.20
2019-05-03T13:23:36.598Z,12.65
2019-05-03T13:26:06.145Z,10.68
2019-05-03T13:28:35.447Z,12.10
2019-05-03T13:31:05.807Z,13.80
2019-05-03T13:33:35.515Z,13.72
2019-05-03T13:36:05.294Z,14.28
2019-05-03T13:38:35.184Z,12.43
2019-05-03T13:41:06.842Z,14.87
2019-05-03T13:43:37.009Z,14.28
2019-05-03T13:46:07.356Z,13.30
2019-05-03T13:48:45.580Z,17.67
2019-05-03T13:51:07.637Z,17.95
2019-05-03T13:53:37.066Z,14.80
2019-05-03T13:56:06.419Z,17.25
2019-05-03T13:58:36.065Z,12.45
2019-05-03T14:01:05.872Z,12.10
2019-05-03T14:03:35.628Z,14.38
2019-05-03T14:06:08.740Z,11.78
2019-05-03T14:08:35.945Z,14.93
2019-05-03T14:11:05.662Z,12.47
2019-05-03T14:13:35.618Z,11.28
2019-05-03T14:16:05.929Z,16.27
2019-05-03T14:18:36.882Z,11.15
2019-05-03T14:21:15.524Z,13.13
2019-05-03T14:24:04.975Z,15.18
2019-05-03T14:26:35.137Z,13.95
2019-05-03T14:29:06.180Z,10.55
2019-05-03T14:31:35.599Z,16.77
2019-05-03T14:34:06.025Z,12.28
2019-05-03T14:36:35.991Z,10.93
2019-05-03T14:39:09.716Z,13.55
2019-05-03T14:41:38.893Z,11.80
2019-05-03T14:44:08.231Z,11.20
2019-05-03T14:46:37.671Z,10.65
2019-05-03T14:49:07.005Z,13.22
2019-05-03T14:51:36.307Z,10.05
2019-05-03T14:54:06.985Z,12.33
2019-05-03T14:56:40.851Z,11.75
2019-05-03T14:59:14.871Z,9.08
2019-05-03T15:02:05.262Z,10.98
2019-05-03T15:04:36.431Z,11.83
2019-05-03T15:07:06.164Z,12.95
2019-05-03T15:09:35.629Z,11.63
2019-05-03T15:12:05.465Z,8.13
2019-05-03T15:14:35.955Z,12.47
2019-05-03T15:17:05.451Z,13.32
2019-05-03T15:19:35.128Z,13.48
2019-05-03T15:22:05.657Z,8.60
2019-05-03T15:24:35.230Z,14.25
2019-05-03T15:27:05.045Z,12.75
2019-05-03T15:29:35.495Z,12.80
2019-05-03T15:32:06.643Z,9.05
2019-05-03T15:34:35.978Z,10.65
2019-05-03T15:37:05.683Z,8.70
2019-05-03T15:39:35.485Z,7.05
2019-05-03T15:42:05.402Z,9.40
2019-05-03T15:44:54.403Z,8.75
2019-05-03T15:47:25.412Z,5.97
2019-05-03T15:49:55.385Z,9.28
2019-05-03T15:52:24.895Z,6.28
2019-05-03T15:54:55.217Z,7.12
2019-05-03T15:57:25.217Z,8.80
2019-05-03T15:59:55.156Z,8.63
2019-05-03T16:02:24.791Z,8.80
2019-05-03T16:04:57.183Z,12.45
2019-05-03T16:07:25.157Z,8.35
2019-05-03T16:09:55.320Z,7.37
2019-05-03T16:12:24.995Z,9.48
2019-05-03T16:14:55.231Z,8.60
2019-05-03T16:17:24.663Z,6.65
2019-05-03T16:19:55.737Z,6.92
2019-05-03T16:22:26.143Z,9.63
2019-05-03T16:24:56.681Z,10.48
2019-05-03T16:27:30.477Z,10.20
2019-05-03T16:30:00.234Z,7.65
2019-05-03T16:32:29.532Z,6.08
2019-05-03T16:34:58.827Z,6.28
2019-05-03T16:37:28.140Z,10.08
2019-05-03T16:39:57.873Z,6.37
2019-05-03T16:42:27.393Z,8.80
2019-05-03T16:44:56.745Z,6.70
2019-05-03T16:47:26.051Z,12.33
2019-05-03T16:49:56.985Z,5.58
2019-05-03T16:52:26.266Z,6.50
2019-05-03T16:54:55.558Z,9.30
2019-05-03T16:57:24.861Z,6.85
2019-05-03T16:59:55.120Z,7.55
2019-05-03T17:02:24.652Z,10.53
2019-05-03T17:04:55.882Z,9.45
2019-05-03T17:07:27.063Z,9.75
2019-05-03T17:10:04.897Z,9.23
2019-05-03T17:12:36.701Z,9.70
2019-05-03T17:15:09.679Z,8.45
2019-05-03T17:17:38.979Z,9.78
2019-05-03T17:20:08.942Z,9.75
2019-05-03T17:22:39.523Z,8.95
2019-05-03T17:25:09.436Z,6.87
2019-05-03T17:27:39.892Z,7.78
2019-05-03T17:30:09.584Z,7.05
2019-05-03T17:32:38.951Z,9.83
2019-05-03T17:35:08.557Z,12.05
2019-05-03T17:37:37.856Z,10.08
2019-05-03T17:40:08.906Z,5.87
2019-05-03T17:42:40.033Z,8.30
2019-05-03T17:45:11.228Z,6.17
2019-05-03T17:47:40.665Z,7.53
2019-05-03T17:50:09.927Z,5.17
2019-05-03T17:52:57.117Z,7.92
2019-05-03T17:55:31.101Z,9.63
2019-05-03T17:58:05.095Z,7.35
2019-05-03T18:00:36.174Z,9.03
2019-05-03T18:03:07.288Z,8.40
2019-05-03T18:05:39.856Z,5.92
2019-05-03T18:08:20.079Z,9.65
2019-05-03T18:10:55.059Z,7.75
2019-05-03T18:13:24.788Z,8.38
2019-05-03T18:15:54.411Z,5.60
2019-05-03T18:18:24.717Z,5.60
2019-05-03T18:20:55.740Z,9.80
2019-05-03T18:23:25.029Z,14.95
2019-05-03T18:25:54.821Z,10.15
2019-05-03T18:28:25.422Z,7.30
2019-05-03T18:30:54.827Z,8.85
2019-05-03T18:33:24.693Z,8.98
2019-05-03T18:35:55.043Z,14.00
2019-05-03T18:38:25.301Z,8.80
2019-05-03T18:40:55.348Z,7.00
2019-05-03T18:43:35.129Z,7.85
2019-05-03T18:46:16.028Z,13.20
2019-05-03T18:48:45.401Z,12.73
2019-05-03T18:51:14.845Z,10.93
2019-05-03T18:53:45.070Z,8.15
2019-05-03T18:56:14.815Z,8.23
2019-05-03T18:58:44.830Z,5.70
2019-05-03T19:01:15.477Z,11.15
2019-05-03T19:03:46.500Z,8.60
2019-05-03T19:06:18.910Z,9.08
2019-05-03T19:09:06.147Z,9.90
2019-05-03T19:11:37.765Z,5.37
2019-05-03T19:14:12.572Z,10.32
2019-05-03T19:16:49.062Z,7.17
2019-05-03T19:19:20.024Z,9.25
2019-05-03T19:21:49.313Z,7.92
2019-05-03T19:24:19.052Z,10.20
2019-05-03T19:26:48.516Z,12.45
2019-05-03T19:29:17.823Z,8.20
2019-05-03T19:31:48.969Z,6.15
2019-05-03T19:34:19.831Z,6.92
2019-05-03T19:36:49.143Z,7.70
2019-05-03T19:39:18.604Z,10.38
2019-05-03T19:41:48.521Z,13.50
2019-05-03T19:44:17.812Z,6.87
2019-05-03T19:46:47.233Z,6.62
2019-05-03T19:49:16.516Z,9.65
2019-05-03T19:51:45.814Z,5.65
2019-05-03T19:54:15.132Z,9.80
2019-05-03T19:56:44.576Z,6.30
2019-05-03T19:59:17.052Z,9.33
2019-05-03T20:01:49.198Z,4.62
2019-05-03T20:04:27.492Z,6.08
2019-05-03T20:07:15.658Z,8.73
2019-05-03T20:09:44.958Z,8.03
2019-05-03T20:12:15.186Z,7.85
2019-05-03T20:14:45.076Z,7.95
2019-05-03T20:17:14.823Z,10.65
2019-05-03T20:19:45.178Z,9.98
2019-05-03T20:22:15.151Z,8.95
2019-05-03T20:24:44.850Z,10.50
2019-05-03T20:27:15.113Z,9.13
2019-05-03T20:29:46.310Z,12.25
2019-05-03T20:32:16.041Z,10.13
2019-05-03T20:34:45.473Z,9.10
2019-05-03T20:37:14.857Z,10.35
2019-05-03T20:39:44.152Z,9.35
2019-05-03T20:42:15.416Z,12.78
2019-05-03T20:44:47.958Z,14.28
2019-05-03T20:47:18.963Z,11.73
2019-05-03T20:50:07.923Z,10.80
2019-05-03T20:52:37.225Z,14.70
2019-05-03T20:55:06.604Z,15.63
2019-05-03T20:57:35.933Z,11.08
2019-05-03T21:00:09.228Z,15.32
2019-05-03T21:02:50.827Z,13.68
2019-05-03T21:05:10.152Z,15.70
2019-05-03T21:07:39.482Z,15.78
2019-05-03T21:10:09.383Z,17.42
2019-05-03T21:12:38.704Z,18.17
2019-05-03T21:15:15.381Z,19.37
2019-05-03T21:17:48.867Z,14.68
2019-05-03T21:20:37.965Z,13.30
2019-05-03T21:23:08.989Z,11.22
2019-05-03T21:26:03.648Z,14.45
2019-05-03T21:28:16.454Z,19.90
2019-05-03T21:30:45.827Z,16.48
2019-05-03T21:33:15.736Z,13.53
2019-05-03T21:35:45.380Z,16.30
2019-05-03T21:38:14.789Z,13.22
2019-05-03T21:40:45.281Z,12.80
2019-05-03T21:43:15.266Z,12.20
2019-05-03T21:45:46.273Z,12.98
2019-05-03T21:48:17.287Z,10.05
2019-05-03T21:50:46.575Z,11.70
2019-05-03T21:53:15.849Z,13.93
2019-05-03T21:55:45.352Z,10.45
2019-05-03T21:58:16.470Z,11.88
2019-05-03T22:00:47.530Z,12.10
2019-05-03T22:03:17.448Z,12.93
2019-05-03T22:05:55.032Z,14.80
2019-05-03T22:08:17.690Z,12.93
2019-05-03T22:10:47.054Z,18.25
2019-05-03T22:13:17.497Z,15.90
2019-05-03T22:15:54.452Z,18.82
2019-05-03T22:18:25.374Z,13.98
2019-05-03T22:21:02.725Z,17.12
2019-05-03T22:23:51.510Z,16.27
2019-05-03T22:26:24.763Z,17.42
2019-05-03T22:28:54.773Z,15.60
2019-05-03T22:31:26.714Z,12.95
2019-05-03T22:33:55.301Z,12.98
2019-05-03T22:36:26.136Z,15.75
2019-05-03T22:38:55.502Z,16.97
2019-05-03T22:41:25.317Z,14.60
2019-05-03T22:43:54.789Z,15.13
2019-05-03T22:46:24.932Z,18.40
2019-05-03T22:48:55.195Z,15.50
2019-05-03T22:51:24.664Z,16.67
2019-05-03T22:53:55.253Z,15.95
2019-05-03T22:56:26.127Z,18.48
2019-05-03T22:58:55.394Z,14.63
2019-05-03T23:01:25.631Z,21.10
2019-05-03T23:03:55.143Z,19.02
2019-05-03T23:06:25.147Z,19.98
2019-05-03T23:08:56.203Z,21.90
2019-05-03T23:11:25.525Z,15.72
2019-05-03T23:14:04.644Z,20.00
2019-05-03T23:16:35.612Z,16.97
2019-05-03T23:19:06.467Z,16.37
2019-05-03T23:21:40.569Z,16.40
2019-05-03T23:24:10.972Z,19.85
2019-05-03T23:26:40.376Z,12.07
2019-05-03T23:29:09.672Z,23.00
2019-05-03T23:31:39.331Z,16.73
2019-05-03T23:34:08.635Z,14.15
2019-05-03T23:36:37.941Z,15.50
2019-05-03T23:39:08.646Z,15.75
2019-05-03T23:41:37.944Z,15.50
2019-05-03T23:44:07.273Z,15.30
2019-05-03T23:46:41.361Z,17.42
2019-05-03T23:49:10.679Z,17.05
2019-05-03T23:51:47.647Z,14.13
2019-05-03T23:54:20.103Z,13.95
2019-05-03T23:56:49.594Z,13.58
2019-05-03T23:59:19.072Z,14.33
